sensor_id;sensor_type;location;lat;lon;timestamp;pressure;altitude;pressure_sealevel;temperature;humidity
49342;BME280;35210;41.606;-87.602;2023-07-20T00:00:10;99477.00;;;29.43;49.68
49342;BME280;35210;41.606;-87.602;2023-07-20T00:02:40;99473.56;;;29.48;49.72
49342;BME280;35210;41.606;-87.602;2023-07-20T00:05:08;99478.28;;;29.41;50.01
49342;BME280;35210;41.606;-87.602;2023-07-20T00:07:36;99481.25;;;29.16;51.10
49342;BME280;35210;41.606;-87.602;2023-07-20T00:10:06;99490.09;;;29.35;50.87
49342;BME280;35210;41.606;-87.602;2023-07-20T00:12:34;99491.41;;;29.32;50.61
49342;BME280;35210;41.606;-87.602;2023-07-20T00:15:05;99497.69;;;29.33;51.07
49342;BME280;35210;41.606;-87.602;2023-07-20T00:17:33;99494.84;;;29.39;51.37
49342;BME280;35210;41.606;-87.602;2023-07-20T00:20:03;99471.41;;;29.38;51.17
49342;BME280;35210;41.606;-87.602;2023-07-20T00:22:34;99467.78;;;29.45;51.91
49342;BME280;35210;41.606;-87.602;2023-07-20T00:25:02;99464.66;;;29.41;52.28
49342;BME280;35210;41.606;-87.602;2023-07-20T00:27:30;99457.59;;;29.28;53.07
49342;BME280;35210;41.606;-87.602;2023-07-20T00:29:58;99443.88;;;29.23;53.28
49342;BME280;35210;41.606;-87.602;2023-07-20T00:32:28;99452.28;;;29.10;54.11
49342;BME280;35210;41.606;-87.602;2023-07-20T00:34:56;99456.56;;;29.06;54.58
49342;BME280;35210;41.606;-87.602;2023-07-20T00:37:25;99457.50;;;29.00;54.76
49342;BME280;35210;41.606;-87.602;2023-07-20T00:39:53;99454.78;;;29.00;55.52
49342;BME280;35210;41.606;-87.602;2023-07-20T00:42:21;99459.91;;;28.96;55.67
49342;BME280;35210;41.606;-87.602;2023-07-20T00:44:50;99464.16;;;28.92;55.71
49342;BME280;35210;41.606;-87.602;2023-07-20T00:47:18;99469.00;;;28.90;55.39
49342;BME280;35210;41.606;-87.602;2023-07-20T00:49:50;99468.41;;;28.88;55.56
49342;BME280;35210;41.606;-87.602;2023-07-20T00:52:22;99461.56;;;28.86;56.13
49342;BME280;35210;41.606;-87.602;2023-07-20T00:54:52;99452.66;;;28.78;55.92
49342;BME280;35210;41.606;-87.602;2023-07-20T00:57:24;99453.00;;;28.70;55.47
49342;BME280;35210;41.606;-87.602;2023-07-20T00:59:53;99460.78;;;28.67;55.73
49342;BME280;35210;41.606;-87.602;2023-07-20T01:02:22;99467.06;;;28.67;55.09
49342;BME280;35210;41.606;-87.602;2023-07-20T01:04:52;99454.97;;;28.40;55.88
49342;BME280;35210;41.606;-87.602;2023-07-20T01:07:25;99450.09;;;28.30;56.25
49342;BME280;35210;41.606;-87.602;2023-07-20T01:10:08;99456.84;;;28.39;56.33
49342;BME280;35210;41.606;-87.602;2023-07-20T01:12:42;99456.25;;;28.37;55.35
49342;BME280;35210;41.606;-87.602;2023-07-20T01:15:10;99442.53;;;28.32;55.62
49342;BME280;35210;41.606;-87.602;2023-07-20T01:17:38;99429.44;;;28.29;55.58
49342;BME280;35210;41.606;-87.602;2023-07-20T01:20:13;99445.50;;;28.31;55.68
49342;BME280;35210;41.606;-87.602;2023-07-20T01:23:17;99450.00;;;28.37;55.25
49342;BME280;35210;41.606;-87.602;2023-07-20T01:26:07;99436.81;;;28.10;55.69
49342;BME280;35210;41.606;-87.602;2023-07-20T01:28:58;99442.06;;;28.24;55.61
49342;BME280;35210;41.606;-87.602;2023-07-20T01:31:36;99442.19;;;28.29;55.62
49342;BME280;35210;41.606;-87.602;2023-07-20T01:34:06;99440.50;;;28.16;55.68
49342;BME280;35210;41.606;-87.602;2023-07-20T01:36:37;99444.03;;;28.17;55.60
49342;BME280;35210;41.606;-87.602;2023-07-20T01:39:06;99432.00;;;28.12;54.90
49342;BME280;35210;41.606;-87.602;2023-07-20T01:41:36;99437.88;;;28.09;54.95
49342;BME280;35210;41.606;-87.602;2023-07-20T01:44:05;99433.50;;;28.08;54.95
49342;BME280;35210;41.606;-87.602;2023-07-20T01:46:35;99434.09;;;28.10;54.84
49342;BME280;35210;41.606;-87.602;2023-07-20T01:49:03;99432.56;;;28.03;53.45
49342;BME280;35210;41.606;-87.602;2023-07-20T01:51:31;99437.06;;;28.09;53.67
49342;BME280;35210;41.606;-87.602;2023-07-20T01:54:00;99445.56;;;28.12;53.57
49342;BME280;35210;41.606;-87.602;2023-07-20T01:56:28;99441.28;;;28.05;53.54
49342;BME280;35210;41.606;-87.602;2023-07-20T01:58:56;99442.13;;;28.05;53.95
49342;BME280;35210;41.606;-87.602;2023-07-20T02:01:24;99432.38;;;27.86;54.58
49342;BME280;35210;41.606;-87.602;2023-07-20T02:03:56;99437.34;;;27.89;54.75
49342;BME280;35210;41.606;-87.602;2023-07-20T02:06:24;99443.50;;;27.96;54.90
49342;BME280;35210;41.606;-87.602;2023-07-20T02:08:52;99461.44;;;27.97;54.72
49342;BME280;35210;41.606;-87.602;2023-07-20T02:11:21;99456.00;;;27.97;55.25
49342;BME280;35210;41.606;-87.602;2023-07-20T02:13:49;99447.88;;;27.97;55.34
49342;BME280;35210;41.606;-87.602;2023-07-20T02:16:17;99455.41;;;27.95;55.54
49342;BME280;35210;41.606;-87.602;2023-07-20T02:18:46;99465.94;;;28.03;55.46
49342;BME280;35210;41.606;-87.602;2023-07-20T02:21:16;99474.78;;;27.99;55.33
49342;BME280;35210;41.606;-87.602;2023-07-20T02:23:44;99474.41;;;27.95;55.36
49342;BME280;35210;41.606;-87.602;2023-07-20T02:26:12;99479.00;;;27.95;55.00
49342;BME280;35210;41.606;-87.602;2023-07-20T02:28:40;99482.78;;;27.94;55.37
49342;BME280;35210;41.606;-87.602;2023-07-20T02:31:09;99486.91;;;27.96;55.44
49342;BME280;35210;41.606;-87.602;2023-07-20T02:33:37;99485.25;;;27.95;56.12
49342;BME280;35210;41.606;-87.602;2023-07-20T02:36:06;99476.75;;;27.92;56.26
49342;BME280;35210;41.606;-87.602;2023-07-20T02:38:36;99471.56;;;27.90;56.01
49342;BME280;35210;41.606;-87.602;2023-07-20T02:41:04;99468.25;;;27.88;57.07
49342;BME280;35210;41.606;-87.602;2023-07-20T02:43:32;99482.88;;;27.87;57.39
49342;BME280;35210;41.606;-87.602;2023-07-20T02:46:01;99484.97;;;27.85;57.40
49342;BME280;35210;41.606;-87.602;2023-07-20T02:48:29;99488.75;;;27.84;58.20
49342;BME280;35210;41.606;-87.602;2023-07-20T02:50:57;99481.06;;;27.81;58.33
49342;BME280;35210;41.606;-87.602;2023-07-20T02:53:26;99485.06;;;27.78;58.34
49342;BME280;35210;41.606;-87.602;2023-07-20T02:55:56;99485.53;;;27.75;58.32
49342;BME280;35210;41.606;-87.602;2023-07-20T02:58:25;99482.06;;;27.68;58.00
49342;BME280;35210;41.606;-87.602;2023-07-20T03:00:53;99480.63;;;27.66;57.64
49342;BME280;35210;41.606;-87.602;2023-07-20T03:03:21;99483.19;;;27.61;57.84
49342;BME280;35210;41.606;-87.602;2023-07-20T03:05:51;99474.66;;;27.57;58.15
49342;BME280;35210;41.606;-87.602;2023-07-20T03:08:20;99476.53;;;27.57;58.39
49342;BME280;35210;41.606;-87.602;2023-07-20T03:10:49;99469.91;;;27.53;58.87
49342;BME280;35210;41.606;-87.602;2023-07-20T03:13:19;99466.59;;;27.50;58.39
49342;BME280;35210;41.606;-87.602;2023-07-20T03:15:47;99470.03;;;27.46;58.27
49342;BME280;35210;41.606;-87.602;2023-07-20T03:18:16;99465.28;;;27.41;58.71
49342;BME280;35210;41.606;-87.602;2023-07-20T03:20:45;99461.81;;;27.34;59.25
49342;BME280;35210;41.606;-87.602;2023-07-20T03:23:14;99455.78;;;27.32;58.99
49342;BME280;35210;41.606;-87.602;2023-07-20T03:25:43;99441.03;;;27.28;59.29
49342;BME280;35210;41.606;-87.602;2023-07-20T03:28:11;99446.91;;;27.25;59.17
49342;BME280;35210;41.606;-87.602;2023-07-20T03:30:40;99444.41;;;27.24;59.50
49342;BME280;35210;41.606;-87.602;2023-07-20T03:33:09;99440.25;;;27.21;59.14
49342;BME280;35210;41.606;-87.602;2023-07-20T03:35:37;99437.19;;;27.17;59.59
49342;BME280;35210;41.606;-87.602;2023-07-20T03:38:05;99439.50;;;27.14;60.65
49342;BME280;35210;41.606;-87.602;2023-07-20T03:40:33;99445.38;;;27.11;61.28
49342;BME280;35210;41.606;-87.602;2023-07-20T03:43:01;99443.13;;;27.08;61.69
49342;BME280;35210;41.606;-87.602;2023-07-20T03:45:30;99462.53;;;27.05;61.90
49342;BME280;35210;41.606;-87.602;2023-07-20T03:48:00;99454.63;;;27.03;62.43
49342;BME280;35210;41.606;-87.602;2023-07-20T03:50:29;99447.16;;;26.99;62.84
49342;BME280;35210;41.606;-87.602;2023-07-20T03:52:57;99448.03;;;26.93;63.04
49342;BME280;35210;41.606;-87.602;2023-07-20T03:55:25;99453.50;;;26.86;63.87
49342;BME280;35210;41.606;-87.602;2023-07-20T03:57:54;99450.66;;;26.81;64.99
49342;BME280;35210;41.606;-87.602;2023-07-20T04:00:25;99442.75;;;26.79;65.16
49342;BME280;35210;41.606;-87.602;2023-07-20T04:02:53;99437.63;;;26.71;65.90
49342;BME280;35210;41.606;-87.602;2023-07-20T04:05:23;99424.53;;;26.68;65.44
49342;BME280;35210;41.606;-87.602;2023-07-20T04:07:52;99429.78;;;26.63;65.59
49342;BME280;35210;41.606;-87.602;2023-07-20T04:10:20;99437.31;;;26.61;65.71
49342;BME280;35210;41.606;-87.602;2023-07-20T04:12:48;99433.38;;;26.57;67.06
49342;BME280;35210;41.606;-87.602;2023-07-20T04:15:17;99435.03;;;26.58;67.14
49342;BME280;35210;41.606;-87.602;2023-07-20T04:17:45;99438.03;;;26.50;67.18
49342;BME280;35210;41.606;-87.602;2023-07-20T04:20:13;99435.97;;;26.45;67.21
49342;BME280;35210;41.606;-87.602;2023-07-20T04:22:43;99419.56;;;26.40;67.57
49342;BME280;35210;41.606;-87.602;2023-07-20T04:25:11;99416.47;;;26.37;67.74
49342;BME280;35210;41.606;-87.602;2023-07-20T04:27:39;99415.03;;;26.34;67.89
49342;BME280;35210;41.606;-87.602;2023-07-20T04:30:08;99407.34;;;26.31;67.92
49342;BME280;35210;41.606;-87.602;2023-07-20T04:32:38;99414.00;;;26.29;68.21
49342;BME280;35210;41.606;-87.602;2023-07-20T04:35:10;99421.50;;;26.27;68.27
49342;BME280;35210;41.606;-87.602;2023-07-20T04:37:38;99422.56;;;26.26;68.78
49342;BME280;35210;41.606;-87.602;2023-07-20T04:40:15;99405.72;;;26.24;69.28
49342;BME280;35210;41.606;-87.602;2023-07-20T04:42:43;99386.97;;;26.22;69.54
49342;BME280;35210;41.606;-87.602;2023-07-20T04:45:11;99386.97;;;26.22;69.45
49342;BME280;35210;41.606;-87.602;2023-07-20T04:47:39;99382.84;;;26.19;70.09
49342;BME280;35210;41.606;-87.602;2023-07-20T04:50:08;99376.81;;;26.17;70.94
49342;BME280;35210;41.606;-87.602;2023-07-20T04:52:36;99375.38;;;26.15;71.86
49342;BME280;35210;41.606;-87.602;2023-07-20T04:55:05;99379.34;;;26.12;72.47
49342;BME280;35210;41.606;-87.602;2023-07-20T04:57:35;99381.88;;;26.07;72.40
49342;BME280;35210;41.606;-87.602;2023-07-20T05:00:03;99375.88;;;26.05;72.14
49342;BME280;35210;41.606;-87.602;2023-07-20T05:02:32;99377.97;;;26.03;71.53
49342;BME280;35210;41.606;-87.602;2023-07-20T05:05:00;99387.75;;;26.04;71.55
49342;BME280;35210;41.606;-87.602;2023-07-20T05:07:28;99395.94;;;25.98;72.01
49342;BME280;35210;41.606;-87.602;2023-07-20T05:09:57;99391.78;;;25.95;72.10
49342;BME280;35210;41.606;-87.602;2023-07-20T05:12:26;99373.50;;;25.91;72.14
49342;BME280;35210;41.606;-87.602;2023-07-20T05:14:56;99381.00;;;25.89;72.14
49342;BME280;35210;41.606;-87.602;2023-07-20T05:17:24;99382.28;;;25.86;71.86
49342;BME280;35210;41.606;-87.602;2023-07-20T05:19:52;99365.66;;;25.82;71.82
49342;BME280;35210;41.606;-87.602;2023-07-20T05:22:20;99364.22;;;25.80;71.57
49342;BME280;35210;41.606;-87.602;2023-07-20T05:24:49;99361.13;;;25.76;71.80
49342;BME280;35210;41.606;-87.602;2023-07-20T05:27:17;99384.00;;;25.74;72.35
49342;BME280;35210;41.606;-87.602;2023-07-20T05:29:45;99386.09;;;25.72;72.99
49342;BME280;35210;41.606;-87.602;2023-07-20T05:32:15;99383.63;;;25.70;73.07
49342;BME280;35210;41.606;-87.602;2023-07-20T05:34:44;99386.53;;;25.69;73.24
49342;BME280;35210;41.606;-87.602;2023-07-20T05:37:12;99381.56;;;25.66;73.05
49342;BME280;35210;41.606;-87.602;2023-07-20T05:39:40;99373.66;;;25.64;73.06
49342;BME280;35210;41.606;-87.602;2023-07-20T05:42:08;99390.72;;;25.65;73.10
49342;BME280;35210;41.606;-87.602;2023-07-20T05:44:36;99383.84;;;25.62;73.94
49342;BME280;35210;41.606;-87.602;2023-07-20T05:47:05;99388.84;;;25.59;74.29
49342;BME280;35210;41.606;-87.602;2023-07-20T05:49:34;99391.16;;;25.55;74.62
49342;BME280;35210;41.606;-87.602;2023-07-20T05:52:02;99397.38;;;25.55;74.73
49342;BME280;35210;41.606;-87.602;2023-07-20T05:54:31;99400.53;;;25.52;74.84
49342;BME280;35210;41.606;-87.602;2023-07-20T05:57:06;99397.00;;;25.52;74.45
49342;BME280;35210;41.606;-87.602;2023-07-20T05:59:34;99400.13;;;25.49;73.99
49342;BME280;35210;41.606;-87.602;2023-07-20T06:02:02;99403.88;;;25.48;73.90
49342;BME280;35210;41.606;-87.602;2023-07-20T06:04:30;99398.69;;;25.46;74.21
49342;BME280;35210;41.606;-87.602;2023-07-20T06:07:00;99403.28;;;25.39;76.24
49342;BME280;35210;41.606;-87.602;2023-07-20T06:09:28;99393.72;;;25.37;77.16
49342;BME280;35210;41.606;-87.602;2023-07-20T06:11:56;99393.31;;;25.33;77.99
49342;BME280;35210;41.606;-87.602;2023-07-20T06:14:25;99387.91;;;25.33;78.24
49342;BME280;35210;41.606;-87.602;2023-07-20T06:16:53;99383.78;;;25.31;78.07
49342;BME280;35210;41.606;-87.602;2023-07-20T06:19:21;99400.81;;;25.31;77.44
49342;BME280;35210;41.606;-87.602;2023-07-20T06:21:50;99400.81;;;25.31;76.68
49342;BME280;35210;41.606;-87.602;2023-07-20T06:24:19;99400.00;;;25.31;76.46
49342;BME280;35210;41.606;-87.602;2023-07-20T06:26:47;99410.81;;;25.31;76.28
49342;BME280;35210;41.606;-87.602;2023-07-20T06:29:15;99404.56;;;25.30;76.08
49342;BME280;35210;41.606;-87.602;2023-07-20T06:31:45;99404.13;;;25.33;76.33
49342;BME280;35210;41.606;-87.602;2023-07-20T06:34:13;99404.13;;;25.33;76.18
49342;BME280;35210;41.606;-87.602;2023-07-20T06:36:41;99416.59;;;25.34;76.11
49342;BME280;35210;41.606;-87.602;2023-07-20T06:39:09;99403.31;;;25.33;76.27
49342;BME280;35210;41.606;-87.602;2023-07-20T06:41:39;99401.44;;;25.33;76.53
49342;BME280;35210;41.606;-87.602;2023-07-20T06:44:07;99398.13;;;25.31;77.17
49342;BME280;35210;41.606;-87.602;2023-07-20T06:46:36;99394.59;;;25.31;77.45
49342;BME280;35210;41.606;-87.602;2023-07-20T06:49:06;99391.06;;;25.30;77.58
49342;BME280;35210;41.606;-87.602;2023-07-20T06:51:35;99403.94;;;25.28;77.35
49342;BME280;35210;41.606;-87.602;2023-07-20T06:54:03;99400.03;;;25.24;77.52
49342;BME280;35210;41.606;-87.602;2023-07-20T06:56:32;99404.63;;;25.24;77.47
49342;BME280;35210;41.606;-87.602;2023-07-20T06:59:01;99392.97;;;25.23;77.66
49342;BME280;35210;41.606;-87.602;2023-07-20T07:01:30;99391.94;;;25.24;77.08
49342;BME280;35210;41.606;-87.602;2023-07-20T07:03:58;99390.72;;;25.20;75.58
49342;BME280;35210;41.606;-87.602;2023-07-20T07:06:26;99381.38;;;25.16;74.95
49342;BME280;35210;41.606;-87.602;2023-07-20T07:08:55;99372.66;;;25.14;74.72
49342;BME280;35210;41.606;-87.602;2023-07-20T07:11:23;99372.66;;;25.14;74.58
49342;BME280;35210;41.606;-87.602;2023-07-20T07:13:51;99370.16;;;25.12;74.67
49342;BME280;35210;41.606;-87.602;2023-07-20T07:16:20;99384.50;;;25.13;75.21
49342;BME280;35210;41.606;-87.602;2023-07-20T07:18:50;99367.66;;;25.11;75.95
49342;BME280;35210;41.606;-87.602;2023-07-20T07:21:19;99375.97;;;25.09;76.56
49342;BME280;35210;41.606;-87.602;2023-07-20T07:23:47;99377.66;;;25.10;76.74
49342;BME280;35210;41.606;-87.602;2023-07-20T07:26:15;99372.25;;;25.04;77.07
49342;BME280;35210;41.606;-87.602;2023-07-20T07:28:43;99379.75;;;25.02;76.63
49342;BME280;35210;41.606;-87.602;2023-07-20T07:31:11;99381.84;;;25.00;76.58
49342;BME280;35210;41.606;-87.602;2023-07-20T07:33:41;99378.31;;;24.99;76.36
49342;BME280;35210;41.606;-87.602;2023-07-20T07:36:09;99367.72;;;24.98;76.71
49342;BME280;35210;41.606;-87.602;2023-07-20T07:38:37;99371.44;;;24.97;76.96
49342;BME280;35210;41.606;-87.602;2023-07-20T07:41:05;99361.66;;;24.96;76.83
49342;BME280;35210;41.606;-87.602;2023-07-20T07:43:33;99357.13;;;24.96;76.30
49342;BME280;35210;41.606;-87.602;2023-07-20T07:46:02;99358.34;;;24.94;76.19
49342;BME280;35210;41.606;-87.602;2023-07-20T07:48:30;99346.91;;;24.92;76.18
49342;BME280;35210;41.606;-87.602;2023-07-20T07:50:59;99344.44;;;24.90;76.25
49342;BME280;35210;41.606;-87.602;2023-07-20T07:53:27;99338.19;;;24.89;76.39
49342;BME280;35210;41.606;-87.602;2023-07-20T07:55:55;99346.72;;;24.86;77.27
49342;BME280;35210;41.606;-87.602;2023-07-20T07:58:24;99349.84;;;24.83;77.66
49342;BME280;35210;41.606;-87.602;2023-07-20T08:00:52;99336.16;;;24.78;78.17
49342;BME280;35210;41.606;-87.602;2023-07-20T08:03:20;99343.63;;;24.76;78.24
49342;BME280;35210;41.606;-87.602;2023-07-20T08:05:50;99347.38;;;24.75;77.45
49342;BME280;35210;41.606;-87.602;2023-07-20T08:08:20;99348.41;;;24.74;77.63
49342;BME280;35210;41.606;-87.602;2023-07-20T08:10:48;99354.84;;;24.73;77.66
49342;BME280;35210;41.606;-87.602;2023-07-20T08:13:16;99357.75;;;24.72;78.01
49342;BME280;35210;41.606;-87.602;2023-07-20T08:15:48;99355.28;;;24.70;78.56
49342;BME280;35210;41.606;-87.602;2023-07-20T08:18:16;99361.28;;;24.72;78.76
49342;BME280;35210;41.606;-87.602;2023-07-20T08:20:45;99356.94;;;24.71;79.30
49342;BME280;35210;41.606;-87.602;2023-07-20T08:23:13;99356.94;;;24.71;79.03
49342;BME280;35210;41.606;-87.602;2023-07-20T08:25:42;99353.41;;;24.71;79.35
49342;BME280;35210;41.606;-87.602;2023-07-20T08:28:11;99350.91;;;24.69;79.47
49342;BME280;35210;41.606;-87.602;2023-07-20T08:30:43;99346.56;;;24.68;78.88
49342;BME280;35210;41.606;-87.602;2023-07-20T08:33:13;99344.47;;;24.70;77.56
49342;BME280;35210;41.606;-87.602;2023-07-20T08:35:41;99326.63;;;24.69;77.47
49342;BME280;35210;41.606;-87.602;2023-07-20T08:38:10;99333.47;;;24.72;78.05
49342;BME280;35210;41.606;-87.602;2023-07-20T08:40:45;99335.34;;;24.71;78.29
49342;BME280;35210;41.606;-87.602;2023-07-20T08:43:14;99329.31;;;24.69;78.65
49342;BME280;35210;41.606;-87.602;2023-07-20T08:45:45;99327.44;;;24.70;78.40
49342;BME280;35210;41.606;-87.602;2023-07-20T08:48:13;99345.94;;;24.73;78.22
49342;BME280;35210;41.606;-87.602;2023-07-20T08:50:43;99345.72;;;24.74;78.08
49342;BME280;35210;41.606;-87.602;2023-07-20T08:53:12;99340.72;;;24.71;77.25
49342;BME280;35210;41.606;-87.602;2023-07-20T08:55:44;99341.56;;;24.72;77.41
49342;BME280;35210;41.606;-87.602;2023-07-20T08:58:13;99342.41;;;24.72;77.65
49342;BME280;35210;41.606;-87.602;2023-07-20T09:00:42;99348.41;;;24.74;77.57
49342;BME280;35210;41.606;-87.602;2023-07-20T09:03:11;99347.38;;;24.75;77.68
49342;BME280;35210;41.606;-87.602;2023-07-20T09:05:39;99349.03;;;24.76;78.49
49342;BME280;35210;41.606;-87.602;2023-07-20T09:08:07;99346.13;;;24.71;79.23
49342;BME280;35210;41.606;-87.602;2023-07-20T09:10:35;99351.56;;;24.65;78.73
49342;BME280;35210;41.606;-87.602;2023-07-20T09:13:05;99352.38;;;24.65;79.02
49342;BME280;35210;41.606;-87.602;2023-07-20T09:15:33;99344.50;;;24.64;79.42
49342;BME280;35210;41.606;-87.602;2023-07-20T09:18:02;99354.03;;;24.66;79.18
49342;BME280;35210;41.606;-87.602;2023-07-20T09:20:32;99351.97;;;24.68;79.25
49342;BME280;35210;41.606;-87.602;2023-07-20T09:23:04;99336.59;;;24.62;79.74
49342;BME280;35210;41.606;-87.602;2023-07-20T09:25:33;99322.06;;;24.63;79.84
49342;BME280;35210;41.606;-87.602;2023-07-20T09:28:04;99321.84;;;24.65;79.73
49342;BME280;35210;41.606;-87.602;2023-07-20T09:30:32;99303.56;;;24.67;79.76
49342;BME280;35210;41.606;-87.602;2023-07-20T09:33:01;99286.97;;;24.63;80.49
49342;BME280;35210;41.606;-87.602;2023-07-20T09:35:29;99291.75;;;24.61;81.43
49342;BME280;35210;41.606;-87.602;2023-07-20T09:37:59;99295.50;;;24.60;82.94
49342;BME280;35210;41.606;-87.602;2023-07-20T09:40:27;99307.53;;;24.57;83.04
49342;BME280;35210;41.606;-87.602;2023-07-20T09:42:55;99323.94;;;24.63;83.14
49342;BME280;35210;41.606;-87.602;2023-07-20T09:45:33;99326.22;;;24.59;83.57
49342;BME280;35210;41.606;-87.602;2023-07-20T09:48:05;99329.97;;;24.58;83.58
49342;BME280;35210;41.606;-87.602;2023-07-20T09:50:34;99332.66;;;24.58;83.67
49342;BME280;35210;41.606;-87.602;2023-07-20T09:53:02;99327.66;;;24.62;83.87
49342;BME280;35210;41.606;-87.602;2023-07-20T09:55:30;99313.75;;;24.58;84.96
49342;BME280;35210;41.606;-87.602;2023-07-20T09:57:59;99327.25;;;24.58;85.41
49342;BME280;35210;41.606;-87.602;2023-07-20T10:00:28;99312.53;;;24.54;87.69
49342;BME280;35210;41.606;-87.602;2023-07-20T10:02:58;99308.38;;;24.51;88.11
49342;BME280;35210;41.606;-87.602;2023-07-20T10:05:32;99309.22;;;24.52;88.32
49342;BME280;35210;41.606;-87.602;2023-07-20T10:08:03;99300.06;;;24.53;88.73
49342;BME280;35210;41.606;-87.602;2023-07-20T10:10:34;99313.56;;;24.53;89.12
49342;BME280;35210;41.606;-87.602;2023-07-20T10:13:04;99317.91;;;24.61;89.59
49342;BME280;35210;41.606;-87.602;2023-07-20T10:15:37;99318.13;;;24.59;90.66
49342;BME280;35210;41.606;-87.602;2023-07-20T10:18:14;99317.28;;;24.58;90.83
49342;BME280;35210;41.606;-87.602;2023-07-20T10:20:47;99335.56;;;24.63;90.96
49342;BME280;35210;41.606;-87.602;2023-07-20T10:23:17;99330.34;;;24.68;91.32
49342;BME280;35210;41.606;-87.602;2023-07-20T10:25:46;99339.69;;;24.72;91.30
49342;BME280;35210;41.606;-87.602;2023-07-20T10:28:15;99327.44;;;24.70;91.58
49342;BME280;35210;41.606;-87.602;2023-07-20T10:30:43;99338.66;;;24.73;91.77
49342;BME280;35210;41.606;-87.602;2023-07-20T10:33:13;99335.75;;;24.68;92.36
49342;BME280;35210;41.606;-87.602;2023-07-20T10:36:01;99343.00;;;24.74;92.21
49342;BME280;35210;41.606;-87.602;2023-07-20T10:38:39;99337.41;;;24.69;92.81
49342;BME280;35210;41.606;-87.602;2023-07-20T10:41:18;99336.59;;;24.69;92.94
49342;BME280;35210;41.606;-87.602;2023-07-20T10:43:48;99332.25;;;24.61;94.03
49342;BME280;35210;41.606;-87.602;2023-07-20T10:46:34;99331.19;;;24.62;94.60
49342;BME280;35210;41.606;-87.602;2023-07-20T10:49:05;99339.91;;;24.64;94.40
49342;BME280;35210;41.606;-87.602;2023-07-20T10:51:39;99342.19;;;24.67;94.41
49342;BME280;35210;41.606;-87.602;2023-07-20T10:54:09;99323.28;;;24.67;94.74
49342;BME280;35210;41.606;-87.602;2023-07-20T10:57:24;99305.88;;;24.63;95.49
49342;BME280;35210;41.606;-87.602;2023-07-20T10:59:52;99296.53;;;24.59;96.52
49342;BME280;35210;41.606;-87.602;2023-07-20T11:02:42;99277.28;;;24.49;97.73
49342;BME280;35210;41.606;-87.602;2023-07-20T11:05:36;99289.09;;;24.48;97.66
49342;BME280;35210;41.606;-87.602;2023-07-20T11:08:09;99302.56;;;24.54;97.71
49342;BME280;35210;41.606;-87.602;2023-07-20T11:10:38;99289.09;;;24.48;99.49
49342;BME280;35210;41.606;-87.602;2023-07-20T11:13:20;99286.84;;;24.45;100.00
49342;BME280;35210;41.606;-87.602;2023-07-20T11:16:02;99299.47;;;24.51;99.63
49342;BME280;35210;41.606;-87.602;2023-07-20T11:18:34;99296.13;;;24.55;99.74
49342;BME280;35210;41.606;-87.602;2023-07-20T11:21:09;99300.28;;;24.58;100.00
49342;BME280;35210;41.606;-87.602;2023-07-20T11:23:39;99310.44;;;24.56;100.00
49342;BME280;35210;41.606;-87.602;2023-07-20T11:26:07;99307.53;;;24.64;100.00
49342;BME280;35210;41.606;-87.602;2023-07-20T11:28:37;99296.91;;;24.69;100.00
49342;BME280;35210;41.606;-87.602;2023-07-20T11:31:05;99290.91;;;24.67;100.00
49342;BME280;35210;41.606;-87.602;2023-07-20T11:33:33;99287.16;;;24.68;100.00
49342;BME280;35210;41.606;-87.602;2023-07-20T11:36:01;99290.44;;;24.77;100.00
49342;BME280;35210;41.606;-87.602;2023-07-20T11:38:31;99287.34;;;24.73;100.00
49342;BME280;35210;41.606;-87.602;2023-07-20T11:40:59;99292.13;;;24.78;100.00
49342;BME280;35210;41.606;-87.602;2023-07-20T11:43:27;99292.72;;;24.80;100.00
49342;BME280;35210;41.606;-87.602;2023-07-20T11:45:56;99290.84;;;24.80;100.00
49342;BME280;35210;41.606;-87.602;2023-07-20T11:48:25;99293.97;;;24.84;100.00
49342;BME280;35210;41.606;-87.602;2023-07-20T11:50:53;99290.84;;;24.87;100.00
49342;BME280;35210;41.606;-87.602;2023-07-20T11:53:21;99288.31;;;24.92;100.00
49342;BME280;35210;41.606;-87.602;2023-07-20T11:55:51;99281.25;;;24.91;100.00
49342;BME280;35210;41.606;-87.602;2023-07-20T11:58:20;99277.91;;;24.96;100.00
49342;BME280;35210;41.606;-87.602;2023-07-20T12:00:48;99276.25;;;24.95;100.00
49342;BME280;35210;41.606;-87.602;2023-07-20T12:03:18;99279.41;;;24.98;100.00
49342;BME280;35210;41.606;-87.602;2023-07-20T12:05:46;99267.53;;;24.99;100.00
49342;BME280;35210;41.606;-87.602;2023-07-20T12:08:17;99263.59;;;25.02;100.00
49342;BME280;35210;41.606;-87.602;2023-07-20T12:10:45;99269.59;;;25.04;100.00
49342;BME280;35210;41.606;-87.602;2023-07-20T12:13:14;99271.66;;;25.08;100.00
49342;BME280;35210;41.606;-87.602;2023-07-20T12:15:43;99273.72;;;25.13;100.00
49342;BME280;35210;41.606;-87.602;2023-07-20T12:18:11;99260.38;;;25.18;100.00
49342;BME280;35210;41.606;-87.602;2023-07-20T12:20:40;99261.63;;;25.22;100.00
49342;BME280;35210;41.606;-87.602;2023-07-20T12:23:09;99244.50;;;25.28;100.00
49342;BME280;35210;41.606;-87.602;2023-07-20T12:25:38;99253.63;;;25.34;100.00
49342;BME280;35210;41.606;-87.602;2023-07-20T12:28:08;99246.72;;;25.38;100.00
49342;BME280;35210;41.606;-87.602;2023-07-20T12:30:39;99248.94;;;25.47;100.00
49342;BME280;35210;41.606;-87.602;2023-07-20T12:33:07;99248.50;;;25.50;100.00
49342;BME280;35210;41.606;-87.602;2023-07-20T12:35:35;99245.09;;;25.62;100.00
49342;BME280;35210;41.606;-87.602;2023-07-20T12:38:03;99240.31;;;25.64;100.00
49342;BME280;35210;41.606;-87.602;2023-07-20T12:40:32;99241.78;;;25.66;100.00
49342;BME280;35210;41.606;-87.602;2023-07-20T12:43:00;99238.25;;;25.66;100.00
49342;BME280;35210;41.606;-87.602;2023-07-20T12:45:28;99235.72;;;25.71;100.00
49342;BME280;35210;41.606;-87.602;2023-07-20T12:47:58;99233.06;;;25.64;100.00
49342;BME280;35210;41.606;-87.602;2023-07-20T12:50:27;99227.59;;;25.71;100.00